createdAt,value
2019-03-21T06:42:50.388Z,94.4
2019-03-21T06:44:50.437Z,93.9
2019-03-21T06:46:50.744Z,94.3
2019-03-21T06:48:49.770Z,92.1
2019-03-21T06:50:49.922Z,90.2
2019-03-21T06:52:49.934Z,88.5
2019-03-21T06:54:50.105Z,88.0
2019-03-21T06:56:50.359Z,89.2
2019-03-21T06:58:53.060Z,89.9
2019-03-21T07:00:50.117Z,90.3
2019-03-21T07:02:50.115Z,88.7
2019-03-21T07:04:50.513Z,73
2019-03-21T07:06:50.690Z,74
2019-03-21T07:08:49.816Z,74
2019-03-21T07:10:49.816Z,74
2019-03-21T07:12:49.889Z,73
2019-03-21T07:14:49.863Z,73
2019-03-21T07:17:01.196Z,73
2019-03-21T07:18:50.137Z,73
2019-03-21T07:20:50.272Z,73
2019-03-21T07:22:50.350Z,73
2019-03-21T07:24:50.374Z,73
2019-03-21T07:26:50.547Z,73
2019-03-21T07:28:50.576Z,73
2019-03-21T07:30:50.562Z,73
2019-03-21T07:32:50.635Z,72
2019-03-21T07:34:50.074Z,72
2019-03-21T07:36:50.220Z,72
2019-03-21T07:38:50.248Z,72
2019-03-21T07:40:50.292Z,72
2019-03-21T07:42:50.284Z,72
2019-03-21T07:44:50.290Z,72
2019-03-21T07:46:50.428Z,72
2019-03-21T07:48:50.553Z,71
2019-03-21T07:50:50.617Z,71
2019-03-21T07:52:49.825Z,71
2019-03-21T07:54:49.869Z,71
2019-03-21T07:56:50.085Z,71
2019-03-21T07:58:50.113Z,71
2019-03-21T08:00:50.217Z,71
2019-03-21T08:02:50.325Z,71
2019-03-21T08:04:50.713Z,71
2019-03-21T08:06:49.882Z,71
2019-03-21T08:08:50.024Z,70
2019-03-21T08:10:50.102Z,70
2019-03-21T08:12:50.187Z,70
2019-03-21T08:14:50.266Z,70
2019-03-21T08:16:50.446Z,70
2019-03-21T08:18:50.530Z,69
2019-03-21T08:21:00.437Z,69
2019-03-21T08:22:50.451Z,69
2019-03-21T08:24:50.542Z,69
2019-03-21T08:26:49.783Z,69
2019-03-21T08:28:49.788Z,69
2019-03-21T08:30:49.891Z,69
2019-03-21T08:32:49.932Z,68
2019-03-21T08:34:50.439Z,68
2019-03-21T08:36:50.614Z,67
2019-03-21T08:38:50.633Z,67
2019-03-21T08:40:50.699Z,67
2019-03-21T08:42:49.798Z,67
2019-03-21T08:44:50.738Z,67
2019-03-21T08:46:49.865Z,66
2019-03-21T08:48:49.924Z,65
2019-03-21T08:50:50.002Z,65
2019-03-21T08:52:50.083Z,65
2019-03-21T08:54:50.205Z,64
2019-03-21T08:56:50.328Z,65
2019-03-21T08:58:50.479Z,65
2019-03-21T09:00:50.543Z,65
2019-03-21T09:02:50.517Z,65
2019-03-21T09:04:49.943Z,65
2019-03-21T09:06:52.909Z,64
2019-03-21T09:08:49.954Z,64
2019-03-21T09:10:50.001Z,64
2019-03-21T09:12:50.125Z,63
2019-03-21T09:14:50.196Z,63
2019-03-21T09:16:50.328Z,64
2019-03-21T09:18:50.291Z,64
2019-03-21T09:20:50.348Z,63
2019-03-21T09:22:50.550Z,62
2019-03-21T09:24:50.550Z,62
2019-03-21T09:26:50.693Z,62
2019-03-21T09:28:50.749Z,62
2019-03-21T09:30:51.247Z,62
2019-03-21T09:32:50.379Z,62
2019-03-21T09:34:49.860Z,62
2019-03-21T09:36:50.108Z,62
2019-03-21T09:38:50.167Z,62
2019-03-21T09:40:50.281Z,62
2019-03-21T09:42:50.402Z,62
2019-03-21T09:44:50.552Z,62
2019-03-21T09:46:51.583Z,62
2019-03-21T09:48:50.637Z,61
2019-03-21T09:50:50.683Z,61
2019-03-21T09:52:49.769Z,61
2019-03-21T09:54:49.793Z,61
2019-03-21T09:56:49.971Z,61
2019-03-21T09:58:50.033Z,61
2019-03-21T10:00:50.045Z,60
2019-03-21T10:02:50.047Z,60
2019-03-21T10:04:50.490Z,60
2019-03-21T10:06:50.685Z,60
2019-03-21T10:08:50.711Z,59
2019-03-21T10:10:49.811Z,59
2019-03-21T10:12:49.816Z,59
2019-03-21T10:14:49.845Z,59
2019-03-21T10:16:49.991Z,59
2019-03-21T10:18:49.955Z,59
2019-03-21T10:20:49.973Z,59
2019-03-21T10:22:50.146Z,58
2019-03-21T10:24:50.127Z,58
2019-03-21T10:26:50.357Z,57
2019-03-21T10:28:50.351Z,57
2019-03-21T10:30:50.431Z,56
2019-03-21T10:32:50.428Z,56
2019-03-21T10:34:49.775Z,56
2019-03-21T10:36:49.837Z,56
2019-03-21T10:38:49.921Z,56
2019-03-21T10:40:49.899Z,55
2019-03-21T10:42:49.995Z,55
2019-03-21T10:44:49.952Z,55
2019-03-21T10:46:50.150Z,56
2019-03-21T10:48:50.102Z,54
2019-03-21T10:50:50.180Z,51
2019-03-21T10:52:50.207Z,51
2019-03-21T10:54:50.366Z,49
2019-03-21T10:56:50.520Z,49
2019-03-21T10:58:50.598Z,49
2019-03-21T11:00:50.663Z,49
2019-03-21T11:02:50.657Z,49
2019-03-21T11:04:50.056Z,49
2019-03-21T11:06:50.238Z,48
2019-03-21T11:08:50.635Z,48
2019-03-21T11:10:50.665Z,48
2019-03-21T11:12:50.707Z,47
2019-03-21T11:14:49.821Z,46
2019-03-21T11:16:50.047Z,46
2019-03-21T11:18:50.075Z,46
2019-03-21T11:20:50.083Z,44
2019-03-21T11:22:50.183Z,44
2019-03-21T11:24:50.200Z,42
2019-03-21T11:26:50.306Z,41
2019-03-21T11:28:50.330Z,41
2019-03-21T11:30:50.406Z,41
2019-03-21T11:32:50.422Z,42
2019-03-21T11:34:49.860Z,43
2019-03-21T11:36:50.052Z,39
2019-03-21T11:38:50.089Z,39
2019-03-21T11:40:50.117Z,39
2019-03-21T11:42:50.170Z,39
2019-03-21T11:44:50.207Z,37
2019-03-21T11:46:50.293Z,39
2019-03-21T11:48:50.289Z,39
2019-03-21T11:50:50.489Z,39
2019-03-21T11:52:50.554Z,38
2019-03-21T11:54:50.593Z,38
2019-03-21T11:56:50.748Z,37
2019-03-21T11:58:49.821Z,37
2019-03-21T12:00:49.861Z,38
2019-03-21T12:02:49.951Z,38
2019-03-21T12:04:50.312Z,37
2019-03-21T12:06:50.757Z,38
2019-03-21T12:08:50.779Z,38
2019-03-21T12:10:49.804Z,38
2019-03-21T12:12:49.964Z,38
2019-03-21T12:14:49.976Z,38
2019-03-21T12:16:50.234Z,36
2019-03-21T12:18:50.241Z,36
2019-03-21T12:20:50.231Z,36
2019-03-21T12:22:50.314Z,37
2019-03-21T12:24:50.402Z,35
2019-03-21T12:26:50.543Z,37
2019-03-21T12:28:50.764Z,37
2019-03-21T12:30:49.820Z,36
2019-03-21T12:32:49.805Z,35
2019-03-21T12:34:50.378Z,35
2019-03-21T12:36:50.543Z,35
2019-03-21T12:38:50.537Z,35
2019-03-21T12:40:50.636Z,34
2019-03-21T12:42:50.726Z,34
2019-03-21T12:44:50.044Z,35
2019-03-21T12:46:50.151Z,35
2019-03-21T12:48:50.257Z,33
2019-03-21T12:50:50.240Z,33
2019-03-21T12:52:50.398Z,34
2019-03-21T12:54:50.476Z,34
2019-03-21T12:56:49.832Z,34
2019-03-21T12:58:49.985Z,32
2019-03-21T13:00:50.082Z,33
2019-03-21T13:02:50.129Z,32
2019-03-21T13:04:50.578Z,32
2019-03-21T13:06:50.721Z,32
2019-03-21T13:08:50.683Z,31
2019-03-21T13:10:50.747Z,31
2019-03-21T13:12:49.967Z,31
2019-03-21T13:14:49.953Z,31
2019-03-21T13:16:50.125Z,31
2019-03-21T13:18:50.219Z,31
2019-03-21T13:20:50.300Z,31
2019-03-21T13:22:54.407Z,30
2019-03-21T13:24:50.498Z,30
2019-03-21T13:26:50.719Z,31
2019-03-21T13:28:50.754Z,30
2019-03-21T13:30:49.850Z,30
2019-03-21T13:32:50.308Z,30
2019-03-21T13:34:49.862Z,30
2019-03-21T13:36:50.123Z,30
2019-03-21T13:38:50.116Z,31
2019-03-21T13:40:50.195Z,30
2019-03-21T13:42:50.230Z,30
2019-03-21T13:44:50.335Z,30
2019-03-21T13:46:50.519Z,31
2019-03-21T13:48:50.535Z,31
2019-03-21T13:50:50.509Z,31
2019-03-21T13:52:50.627Z,31
2019-03-21T13:54:50.748Z,30
2019-03-21T13:56:49.915Z,30
2019-03-21T13:58:50.062Z,31
2019-03-21T14:00:50.130Z,30
2019-03-21T14:02:50.244Z,30
2019-03-21T14:04:50.622Z,30
2019-03-21T14:06:49.859Z,30
2019-03-21T14:08:50.114Z,30
2019-03-21T14:10:50.226Z,30
2019-03-21T14:12:50.289Z,30
2019-03-21T14:14:50.315Z,30
2019-03-21T14:16:51.481Z,31
2019-03-21T14:18:50.520Z,30
2019-03-21T14:20:50.570Z,30
2019-03-21T14:22:50.645Z,30
2019-03-21T14:24:50.700Z,30
2019-03-21T14:26:49.878Z,31
2019-03-21T14:28:49.920Z,31
2019-03-21T14:30:50.004Z,31
2019-03-21T14:32:49.979Z,30
2019-03-21T14:34:50.460Z,30
2019-03-21T14:36:50.660Z,30
2019-03-21T14:38:50.673Z,29
2019-03-21T14:40:49.848Z,29
2019-03-21T14:42:50.220Z,29
2019-03-21T14:44:50.472Z,29
2019-03-21T14:46:50.655Z,30
2019-03-21T14:48:50.780Z,30
2019-03-21T14:50:49.815Z,30
2019-03-21T14:52:49.842Z,30
2019-03-21T14:54:49.906Z,30
2019-03-21T14:56:50.133Z,30
2019-03-21T14:58:50.179Z,30
2019-03-21T15:00:50.206Z,30
2019-03-21T15:02:50.339Z,30
2019-03-21T15:04:50.682Z,30
2019-03-21T15:06:49.830Z,30
2019-03-21T15:08:49.865Z,30
2019-03-21T15:10:49.889Z,30
2019-03-21T15:12:50.085Z,31
2019-03-21T15:14:50.121Z,30
2019-03-21T15:16:50.365Z,30
2019-03-21T15:18:50.405Z,30
2019-03-21T15:20:50.403Z,30
2019-03-21T15:22:50.549Z,30
2019-03-21T15:24:50.595Z,30
2019-03-21T15:26:51.703Z,30
2019-03-21T15:28:50.709Z,30
2019-03-21T15:30:49.776Z,31
2019-03-21T15:32:49.831Z,30
2019-03-21T15:34:50.330Z,30
2019-03-21T15:36:50.485Z,30
2019-03-21T15:38:50.598Z,30
2019-03-21T15:40:50.631Z,31
2019-03-21T15:42:49.769Z,31
2019-03-21T15:44:52.145Z,31
2019-03-21T15:46:50.324Z,31
2019-03-21T15:48:50.472Z,31
2019-03-21T15:50:50.545Z,31
2019-03-21T15:52:50.588Z,32
2019-03-21T15:54:50.639Z,32
2019-03-21T15:56:49.930Z,32
2019-03-21T15:58:50.026Z,32
2019-03-21T16:00:50.016Z,32
2019-03-21T16:02:50.065Z,31
2019-03-21T16:04:50.437Z,31
2019-03-21T16:06:50.748Z,32
2019-03-21T16:08:50.767Z,32
2019-03-21T16:10:50.725Z,32
2019-03-21T16:12:49.936Z,32
2019-03-21T16:14:49.943Z,32
2019-03-21T16:16:50.268Z,32
2019-03-21T16:18:50.374Z,32
2019-03-21T16:20:50.395Z,33
2019-03-21T16:22:50.435Z,31.9
2019-03-21T16:24:50.492Z,32.2
2019-03-21T16:26:50.791Z,33.6
2019-03-21T16:28:50.010Z,32.0
2019-03-21T16:30:50.108Z,33.2
2019-03-21T16:32:50.193Z,35.4
2019-03-21T16:34:50.623Z,32.7
2019-03-21T16:36:50.758Z,33.1
2019-03-21T16:38:49.795Z,35.0
2019-03-21T16:40:49.795Z,34.7
2019-03-21T16:42:49.967Z,33.5
2019-03-21T16:44:50.095Z,33.7
2019-03-21T16:46:50.308Z,34.7
2019-03-21T16:48:50.351Z,34.7
2019-03-21T16:50:50.639Z,35.6
2019-03-21T16:52:49.823Z,35.2
2019-03-21T16:54:49.909Z,37.7
2019-03-21T16:56:50.107Z,36.5
2019-03-21T16:58:50.185Z,35.6
2019-03-21T17:00:50.201Z,35.2
2019-03-21T17:02:50.228Z,35.9
2019-03-21T17:04:50.829Z,36.9
2019-03-21T17:06:50.232Z,36.2
2019-03-21T17:08:50.287Z,37.0
2019-03-21T17:10:50.466Z,36.5
2019-03-21T17:12:50.740Z,37.4
2019-03-21T17:14:49.868Z,37.1
2019-03-21T17:16:50.153Z,38.1
2019-03-21T17:18:50.330Z,39.4
2019-03-21T17:20:50.589Z,41.0
2019-03-21T17:22:50.818Z,43.7
2019-03-21T17:24:49.970Z,43.4
2019-03-21T17:26:50.135Z,43.7
2019-03-21T17:28:50.229Z,45.4
2019-03-21T17:30:50.220Z,47.9
2019-03-21T17:32:50.290Z,48.9
2019-03-21T17:34:50.560Z,47.2
2019-03-21T17:36:50.768Z,45.6
2019-03-21T17:38:49.848Z,49.8
2019-03-21T17:40:49.872Z,53.2
2019-03-21T17:42:49.860Z,55.0
2019-03-21T17:44:49.897Z,59.2
2019-03-21T17:46:50.157Z,56.5
2019-03-21T17:48:50.205Z,56.2
2019-03-21T17:50:50.311Z,54.8
2019-03-21T17:52:50.485Z,56.1
2019-03-21T17:54:50.524Z,59.3
2019-03-21T17:56:49.866Z,63.8
2019-03-21T17:58:49.843Z,58.7
2019-03-21T18:00:49.916Z,58.3
2019-03-21T18:02:49.990Z,60.0
2019-03-21T18:04:50.482Z,56.2
2019-03-21T18:06:50.700Z,58.0
2019-03-21T18:08:50.750Z,61.7
2019-03-21T18:10:50.767Z,63.4
2019-03-21T18:12:49.878Z,64.2
2019-03-21T18:14:49.851Z,61.7
2019-03-21T18:16:50.113Z,59.2
2019-03-21T18:18:50.110Z,60.1
2019-03-21T18:20:50.232Z,63.1
2019-03-21T18:22:50.260Z,65.8
2019-03-21T18:24:54.631Z,65.5
2019-03-21T18:26:49.889Z,63.6
2019-03-21T18:28:50.048Z,61.7
2019-03-21T18:30:50.107Z,62.0
2019-03-21T18:32:50.155Z,67.7
2019-03-21T18:34:50.525Z,68.5
2019-03-21T18:36:50.741Z,68.3
2019-03-21T18:39:00.304Z,68.3
2019-03-21T18:40:50.451Z,68.4
2019-03-21T18:42:50.560Z,66.9
2019-03-21T18:44:50.969Z,66.0
2019-03-21T18:46:50.356Z,64.3
2019-03-21T18:48:50.439Z,65.4
2019-03-21T18:50:50.575Z,60.6
2019-03-21T18:52:50.719Z,67.2
2019-03-21T18:54:50.797Z,70.4
2019-03-21T18:56:49.946Z,69.1
2019-03-21T18:58:50.116Z,67.4
2019-03-21T19:00:50.114Z,68.9
2019-03-21T19:02:50.235Z,65.0
2019-03-21T19:04:50.627Z,67.4
2019-03-21T19:06:50.263Z,69.9
2019-03-21T19:08:50.344Z,71.5
2019-03-21T19:10:50.560Z,74.4
2019-03-21T19:12:50.564Z,72.3
2019-03-21T19:14:50.653Z,76.6
2019-03-21T19:16:49.956Z,75.4
2019-03-21T19:18:50.005Z,75.8
2019-03-21T19:20:50.119Z,77.7
2019-03-21T19:22:50.434Z,73.2
2019-03-21T19:24:50.460Z,69.6
2019-03-21T19:26:50.673Z,70.9
2019-03-21T19:28:49.795Z,69.9
2019-03-21T19:30:49.931Z,68.8
2019-03-21T19:32:49.994Z,72.6
2019-03-21T19:34:50.467Z,72.0
2019-03-21T19:36:50.727Z,76.4
2019-03-21T19:38:49.808Z,72.5
2019-03-21T19:40:49.856Z,74.0
2019-03-21T19:42:49.924Z,77.2
2019-03-21T19:44:49.944Z,76.0
2019-03-21T19:46:50.180Z,76.2
2019-03-21T19:48:50.992Z,75.7
2019-03-21T19:50:50.011Z,78.6
2019-03-21T19:52:50.100Z,79.3
2019-03-21T19:54:50.167Z,76.2
2019-03-21T19:56:50.380Z,75.7
2019-03-21T19:58:50.541Z,79.5
2019-03-21T20:00:50.506Z,80.8
2019-03-21T20:02:50.599Z,79.6
2019-03-21T20:04:49.832Z,80.8
2019-03-21T20:06:50.305Z,80.7
2019-03-21T20:08:50.386Z,82.7
2019-03-21T20:10:50.486Z,81.7
2019-03-21T20:12:50.655Z,82.6
2019-03-21T20:14:49.843Z,80.3
2019-03-21T20:16:49.943Z,81.3
2019-03-21T20:18:50.008Z,78.1
2019-03-21T20:20:50.022Z,77.6
2019-03-21T20:22:50.074Z,77.1
2019-03-21T20:24:50.089Z,76.2
2019-03-21T20:26:50.360Z,75.3
2019-03-21T20:28:50.442Z,76.0
2019-03-21T20:30:50.471Z,76.5
2019-03-21T20:32:50.573Z,77.2
2019-03-21T20:34:49.997Z,76.9
2019-03-21T20:36:50.158Z,76.9
2019-03-21T20:38:50.202Z,76.1
2019-03-21T20:40:50.239Z,75.5
2019-03-21T20:42:50.321Z,75.1
2019-03-21T20:44:50.506Z,76.3
2019-03-21T20:46:50.732Z,78.0
2019-03-21T20:48:49.829Z,77.1
2019-03-21T20:50:49.875Z,76.8
2019-03-21T20:52:50.071Z,77.7
2019-03-21T20:54:50.108Z,77.6
2019-03-21T20:56:50.250Z,79.5
2019-03-21T20:58:50.265Z,79.3
2019-03-21T21:00:50.313Z,81.4
2019-03-21T21:02:50.403Z,80.2
2019-03-21T21:04:50.734Z,78.9
2019-03-21T21:06:50.024Z,78.9
2019-03-21T21:08:50.121Z,79.0
2019-03-21T21:10:50.198Z,78.5
2019-03-21T21:12:50.260Z,80.1
2019-03-21T21:14:50.298Z,81.1
2019-03-21T21:16:50.470Z,82.2
2019-03-21T21:18:50.488Z,83.2
2019-03-21T21:20:50.558Z,83.1
2019-03-21T21:22:50.632Z,82.4
2019-03-21T21:24:50.689Z,82.8
2019-03-21T21:26:49.877Z,82.5
2019-03-21T21:28:49.964Z,83.4
2019-03-21T21:30:50.070Z,83.9
2019-03-21T21:32:50.107Z,82.5
2019-03-21T21:34:50.416Z,82.2
2019-03-21T21:36:50.691Z,83.9
2019-03-21T21:38:50.702Z,84.7
2019-03-21T21:40:50.725Z,84.3
2019-03-21T21:42:50.855Z,84.5
2019-03-21T21:44:49.926Z,84.8
2019-03-21T21:46:50.183Z,86.7
2019-03-21T21:48:50.235Z,85.3
2019-03-21T21:50:50.274Z,85.2
2019-03-21T21:52:50.368Z,84.9
2019-03-21T21:54:50.466Z,86.2
2019-03-21T21:56:50.702Z,87.8
2019-03-21T21:58:50.729Z,86.8
2019-03-21T22:00:49.836Z,86.7
2019-03-21T22:02:49.828Z,85.7
2019-03-21T22:04:50.322Z,84.7
2019-03-21T22:06:50.619Z,85.2
2019-03-21T22:08:50.606Z,85.2
2019-03-21T22:10:50.590Z,83.1
2019-03-21T22:12:50.678Z,84.0
2019-03-21T22:14:50.723Z,86.6
2019-03-21T22:16:50.035Z,85.8
2019-03-21T22:18:50.186Z,85.9
2019-03-21T22:20:50.287Z,86.9
2019-03-21T22:22:50.399Z,88.5
2019-03-21T22:24:50.481Z,87.4
2019-03-21T22:26:49.781Z,87.4
2019-03-21T22:28:49.859Z,86.4
2019-03-21T22:30:49.855Z,86.8
2019-03-21T22:32:49.980Z,87.0
2019-03-21T22:34:50.326Z,86.5
2019-03-21T22:36:50.571Z,86.5
2019-03-21T22:38:49.796Z,87.6
2019-03-21T22:40:49.776Z,88.7
2019-03-21T22:42:50.009Z,88.9
2019-03-21T22:44:50.149Z,88.9
2019-03-21T22:46:50.398Z,88.7
2019-03-21T22:48:50.521Z,90.1
2019-03-21T22:50:50.580Z,89.0
2019-03-21T22:52:50.726Z,89.5
2019-03-21T22:54:49.876Z,89.4
2019-03-21T22:56:50.015Z,89.6
2019-03-21T22:58:50.118Z,89.5
2019-03-21T23:00:50.173Z,90.4
2019-03-21T23:02:50.352Z,89.5
2019-03-21T23:04:50.804Z,88.3
2019-03-21T23:06:50.148Z,88.9
2019-03-21T23:08:50.279Z,88.0
2019-03-21T23:10:50.467Z,88.0
2019-03-21T23:12:50.609Z,90.7
2019-03-21T23:14:50.826Z,90.8
2019-03-21T23:16:50.253Z,90.3
2019-03-21T23:18:50.344Z,90.7
2019-03-21T23:20:50.472Z,90.2
2019-03-21T23:22:50.564Z,91.1
2019-03-21T23:24:50.785Z,90.1
2019-03-21T23:26:53.774Z,90.7
2019-03-21T23:28:49.934Z,89.8
2019-03-21T23:30:50.000Z,91.3
2019-03-21T23:32:50.127Z,89.9
2019-03-21T23:34:50.616Z,89.4
2019-03-21T23:36:49.892Z,89.5
2019-03-21T23:38:50.127Z,90.1
2019-03-21T23:40:50.390Z,90.2
2019-03-21T23:42:50.526Z,91.1
2019-03-21T23:44:50.681Z,92.8
2019-03-21T23:46:50.024Z,91.3
2019-03-21T23:48:50.196Z,90.9
2019-03-21T23:50:50.304Z,91.8
2019-03-21T23:52:50.496Z,92.0
2019-03-21T23:54:50.586Z,92.3
2019-03-21T23:56:49.968Z,92.0
2019-03-21T23:58:50.162Z,92.9
